sensor_id;sensor_type;location;lat;lon;timestamp;temperature;humidity
6407;DHT22;3236;51.022;6.818;2022-12-10T00:00:48;-2.10;99.90
6407;DHT22;3236;51.022;6.818;2022-12-10T00:03:15;-2.20;99.90
6407;DHT22;3236;51.022;6.818;2022-12-10T00:05:42;-2.30;99.90
6407;DHT22;3236;51.022;6.818;2022-12-10T00:08:10;-2.00;99.90
6407;DHT22;3236;51.022;6.818;2022-12-10T00:10:39;-1.80;99.90
6407;DHT22;3236;51.022;6.818;2022-12-10T00:13:06;-2.20;99.90
6407;DHT22;3236;51.022;6.818;2022-12-10T00:15:34;-2.30;99.90
6407;DHT22;3236;51.022;6.818;2022-12-10T00:18:03;-2.40;99.90
6407;DHT22;3236;51.022;6.818;2022-12-10T00:20:30;-1.50;99.90
6407;DHT22;3236;51.022;6.818;2022-12-10T00:22:57;-2.00;99.90
6407;DHT22;3236;51.022;6.818;2022-12-10T00:25:24;-2.40;99.90
6407;DHT22;3236;51.022;6.818;2022-12-10T00:27:54;-2.40;99.90
6407;DHT22;3236;51.022;6.818;2022-12-10T00:30:21;-2.40;99.90
6407;DHT22;3236;51.022;6.818;2022-12-10T00:32:51;-2.40;99.90
6407;DHT22;3236;51.022;6.818;2022-12-10T00:35:19;-2.40;99.90
6407;DHT22;3236;51.022;6.818;2022-12-10T00:37:48;-1.80;99.90
6407;DHT22;3236;51.022;6.818;2022-12-10T00:40:15;-1.90;99.90
6407;DHT22;3236;51.022;6.818;2022-12-10T00:42:43;-1.70;99.90
6407;DHT22;3236;51.022;6.818;2022-12-10T00:45:10;-1.70;99.90
6407;DHT22;3236;51.022;6.818;2022-12-10T00:47:37;-2.10;99.90
6407;DHT22;3236;51.022;6.818;2022-12-10T00:50:05;-2.20;99.90
6407;DHT22;3236;51.022;6.818;2022-12-10T00:52:33;-2.30;99.90
6407;DHT22;3236;51.022;6.818;2022-12-10T00:55:00;-2.30;99.90
6407;DHT22;3236;51.022;6.818;2022-12-10T00:57:31;-2.40;99.90
6407;DHT22;3236;51.022;6.818;2022-12-10T01:00:01;-2.50;99.90
6407;DHT22;3236;51.022;6.818;2022-12-10T01:02:28;-2.60;99.90
6407;DHT22;3236;51.022;6.818;2022-12-10T01:04:55;-2.50;99.90
6407;DHT22;3236;51.022;6.818;2022-12-10T01:07:22;-2.50;99.90
6407;DHT22;3236;51.022;6.818;2022-12-10T01:09:54;-2.40;99.90
6407;DHT22;3236;51.022;6.818;2022-12-10T01:12:21;-2.20;99.90
6407;DHT22;3236;51.022;6.818;2022-12-10T01:14:48;-2.30;99.90
6407;DHT22;3236;51.022;6.818;2022-12-10T01:17:19;-2.10;99.90
6407;DHT22;3236;51.022;6.818;2022-12-10T01:19:47;-1.90;99.90
6407;DHT22;3236;51.022;6.818;2022-12-10T01:22:14;-1.90;99.90
6407;DHT22;3236;51.022;6.818;2022-12-10T01:24:41;-2.10;99.90
6407;DHT22;3236;51.022;6.818;2022-12-10T01:27:10;-2.00;99.90
6407;DHT22;3236;51.022;6.818;2022-12-10T01:29:40;-2.10;99.90
6407;DHT22;3236;51.022;6.818;2022-12-10T01:32:10;-2.20;99.90
6407;DHT22;3236;51.022;6.818;2022-12-10T01:34:37;-2.20;99.90
6407;DHT22;3236;51.022;6.818;2022-12-10T01:37:04;-2.30;99.90
6407;DHT22;3236;51.022;6.818;2022-12-10T01:39:31;-2.20;99.90
6407;DHT22;3236;51.022;6.818;2022-12-10T01:42:02;-2.20;99.90
6407;DHT22;3236;51.022;6.818;2022-12-10T01:45:00;-2.00;99.90
6407;DHT22;3236;51.022;6.818;2022-12-10T01:47:27;-2.30;99.90
6407;DHT22;3236;51.022;6.818;2022-12-10T01:49:55;-2.70;99.90
6407;DHT22;3236;51.022;6.818;2022-12-10T01:52:25;-2.50;99.90
6407;DHT22;3236;51.022;6.818;2022-12-10T01:54:52;-2.30;99.90
6407;DHT22;3236;51.022;6.818;2022-12-10T01:57:21;-2.60;99.90
6407;DHT22;3236;51.022;6.818;2022-12-10T01:59:55;-2.60;99.90
6407;DHT22;3236;51.022;6.818;2022-12-10T02:02:33;-2.60;99.90
6407;DHT22;3236;51.022;6.818;2022-12-10T02:05:11;-2.70;99.90
6407;DHT22;3236;51.022;6.818;2022-12-10T02:07:52;-2.50;99.90
6407;DHT22;3236;51.022;6.818;2022-12-10T02:10:31;-2.30;99.90
6407;DHT22;3236;51.022;6.818;2022-12-10T02:13:06;-2.40;99.90
6407;DHT22;3236;51.022;6.818;2022-12-10T02:15:39;-2.40;99.90
6407;DHT22;3236;51.022;6.818;2022-12-10T02:18:11;-2.30;99.90
6407;DHT22;3236;51.022;6.818;2022-12-10T02:20:41;-2.40;99.90
6407;DHT22;3236;51.022;6.818;2022-12-10T02:23:12;-2.20;99.90
6407;DHT22;3236;51.022;6.818;2022-12-10T02:25:45;-2.10;99.90
6407;DHT22;3236;51.022;6.818;2022-12-10T02:28:18;-1.80;99.90
6407;DHT22;3236;51.022;6.818;2022-12-10T02:30:48;-1.90;99.90
6407;DHT22;3236;51.022;6.818;2022-12-10T02:33:19;-2.10;99.90
6407;DHT22;3236;51.022;6.818;2022-12-10T02:35:49;-2.00;99.90
6407;DHT22;3236;51.022;6.818;2022-12-10T02:38:20;-2.00;99.90
6407;DHT22;3236;51.022;6.818;2022-12-10T02:40:53;-1.80;99.90
6407;DHT22;3236;51.022;6.818;2022-12-10T02:43:22;-1.90;99.90
6407;DHT22;3236;51.022;6.818;2022-12-10T02:45:54;-1.60;99.90
6407;DHT22;3236;51.022;6.818;2022-12-10T02:48:25;-1.80;99.90
6407;DHT22;3236;51.022;6.818;2022-12-10T02:50:53;-1.90;99.90
6407;DHT22;3236;51.022;6.818;2022-12-10T02:53:20;-1.90;99.90
6407;DHT22;3236;51.022;6.818;2022-12-10T02:55:59;-1.90;99.90
6407;DHT22;3236;51.022;6.818;2022-12-10T02:58:41;-1.80;99.90
6407;DHT22;3236;51.022;6.818;2022-12-10T03:01:17;-1.50;99.90
6407;DHT22;3236;51.022;6.818;2022-12-10T03:03:49;-1.60;99.90
6407;DHT22;3236;51.022;6.818;2022-12-10T03:06:24;-1.50;99.90
6407;DHT22;3236;51.022;6.818;2022-12-10T03:08:59;-1.50;99.90
6407;DHT22;3236;51.022;6.818;2022-12-10T03:11:28;-1.50;99.90
6407;DHT22;3236;51.022;6.818;2022-12-10T03:13:59;-1.50;99.90
6407;DHT22;3236;51.022;6.818;2022-12-10T03:16:33;-1.40;99.90
6407;DHT22;3236;51.022;6.818;2022-12-10T03:19:04;-1.30;99.90
6407;DHT22;3236;51.022;6.818;2022-12-10T03:21:34;-1.00;99.90
6407;DHT22;3236;51.022;6.818;2022-12-10T03:24:04;-1.40;99.90
6407;DHT22;3236;51.022;6.818;2022-12-10T03:26:32;-1.00;99.90
6407;DHT22;3236;51.022;6.818;2022-12-10T03:29:03;-0.80;99.90
6407;DHT22;3236;51.022;6.818;2022-12-10T03:31:34;-1.10;99.90
6407;DHT22;3236;51.022;6.818;2022-12-10T03:36:30;-1.00;99.90
6407;DHT22;3236;51.022;6.818;2022-12-10T03:38:58;-1.10;99.90
6407;DHT22;3236;51.022;6.818;2022-12-10T03:41:25;-0.80;99.90
6407;DHT22;3236;51.022;6.818;2022-12-10T03:43:54;-0.70;99.90
6407;DHT22;3236;51.022;6.818;2022-12-10T03:46:22;-0.90;99.90
6407;DHT22;3236;51.022;6.818;2022-12-10T03:48:51;-0.80;99.90
6407;DHT22;3236;51.022;6.818;2022-12-10T03:51:19;-0.60;99.90
6407;DHT22;3236;51.022;6.818;2022-12-10T03:53:47;-0.80;99.90
6407;DHT22;3236;51.022;6.818;2022-12-10T03:56:15;-0.50;99.90
6407;DHT22;3236;51.022;6.818;2022-12-10T03:58:43;-0.80;99.90
6407;DHT22;3236;51.022;6.818;2022-12-10T04:01:13;-0.80;99.90
6407;DHT22;3236;51.022;6.818;2022-12-10T04:03:41;-0.90;99.90
6407;DHT22;3236;51.022;6.818;2022-12-10T04:06:15;-0.80;99.90
6407;DHT22;3236;51.022;6.818;2022-12-10T04:08:43;-0.70;99.90
6407;DHT22;3236;51.022;6.818;2022-12-10T04:11:11;-0.70;99.90
6407;DHT22;3236;51.022;6.818;2022-12-10T04:13:39;-0.50;99.90
6407;DHT22;3236;51.022;6.818;2022-12-10T04:16:24;-0.50;99.90
6407;DHT22;3236;51.022;6.818;2022-12-10T04:18:57;-0.60;99.90
6407;DHT22;3236;51.022;6.818;2022-12-10T04:21:27;-0.60;99.90
6407;DHT22;3236;51.022;6.818;2022-12-10T04:24:13;-0.60;99.90
6407;DHT22;3236;51.022;6.818;2022-12-10T04:27:02;-0.70;99.90
6407;DHT22;3236;51.022;6.818;2022-12-10T04:29:30;-0.80;99.90
6407;DHT22;3236;51.022;6.818;2022-12-10T04:31:58;-0.60;99.90
6407;DHT22;3236;51.022;6.818;2022-12-10T04:34:25;-0.70;99.90
6407;DHT22;3236;51.022;6.818;2022-12-10T04:36:56;-0.60;99.90
6407;DHT22;3236;51.022;6.818;2022-12-10T04:39:23;-0.60;99.90
6407;DHT22;3236;51.022;6.818;2022-12-10T04:41:51;-0.80;99.90
6407;DHT22;3236;51.022;6.818;2022-12-10T04:44:20;-0.60;99.90
6407;DHT22;3236;51.022;6.818;2022-12-10T04:46:47;-0.80;99.90
6407;DHT22;3236;51.022;6.818;2022-12-10T04:49:15;-0.80;99.90
6407;DHT22;3236;51.022;6.818;2022-12-10T04:51:43;-0.80;99.90
6407;DHT22;3236;51.022;6.818;2022-12-10T04:54:12;-0.60;99.90
6407;DHT22;3236;51.022;6.818;2022-12-10T04:56:40;-0.80;99.90
6407;DHT22;3236;51.022;6.818;2022-12-10T04:59:09;-0.80;99.90
6407;DHT22;3236;51.022;6.818;2022-12-10T05:01:36;-0.90;99.90
6407;DHT22;3236;51.022;6.818;2022-12-10T05:04:06;-0.90;99.90
6407;DHT22;3236;51.022;6.818;2022-12-10T05:06:34;-0.90;99.90
6407;DHT22;3236;51.022;6.818;2022-12-10T05:09:02;-0.90;99.90
6407;DHT22;3236;51.022;6.818;2022-12-10T05:11:32;-0.90;99.90
6407;DHT22;3236;51.022;6.818;2022-12-10T05:14:00;-1.10;99.90
6407;DHT22;3236;51.022;6.818;2022-12-10T05:16:31;-1.00;99.90
6407;DHT22;3236;51.022;6.818;2022-12-10T05:19:00;-0.70;99.90
6407;DHT22;3236;51.022;6.818;2022-12-10T05:21:28;-0.90;99.90
6407;DHT22;3236;51.022;6.818;2022-12-10T05:24:17;-1.10;99.90
6407;DHT22;3236;51.022;6.818;2022-12-10T05:26:45;-0.90;99.90
6407;DHT22;3236;51.022;6.818;2022-12-10T05:29:16;-0.70;99.90
6407;DHT22;3236;51.022;6.818;2022-12-10T05:31:44;-1.00;99.90
6407;DHT22;3236;51.022;6.818;2022-12-10T05:34:11;-0.90;99.90
6407;DHT22;3236;51.022;6.818;2022-12-10T05:36:41;-1.10;99.90
6407;DHT22;3236;51.022;6.818;2022-12-10T05:39:09;-0.90;99.90
6407;DHT22;3236;51.022;6.818;2022-12-10T05:41:38;-1.10;99.90
6407;DHT22;3236;51.022;6.818;2022-12-10T05:46:35;-1.00;99.90
6407;DHT22;3236;51.022;6.818;2022-12-10T05:49:04;-0.90;99.90
6407;DHT22;3236;51.022;6.818;2022-12-10T05:51:33;-0.70;99.90
6407;DHT22;3236;51.022;6.818;2022-12-10T05:54:01;-1.10;99.90
6407;DHT22;3236;51.022;6.818;2022-12-10T05:56:29;-0.90;99.90
6407;DHT22;3236;51.022;6.818;2022-12-10T05:58:58;-0.80;99.90
6407;DHT22;3236;51.022;6.818;2022-12-10T06:01:29;-1.10;99.90
6407;DHT22;3236;51.022;6.818;2022-12-10T06:03:57;-1.00;99.90
6407;DHT22;3236;51.022;6.818;2022-12-10T06:06:26;-0.80;99.90
6407;DHT22;3236;51.022;6.818;2022-12-10T06:08:55;-0.80;99.90
6407;DHT22;3236;51.022;6.818;2022-12-10T06:11:22;-0.60;99.90
6407;DHT22;3236;51.022;6.818;2022-12-10T06:13:52;-0.80;99.90
6407;DHT22;3236;51.022;6.818;2022-12-10T06:18:49;-0.70;99.90
6407;DHT22;3236;51.022;6.818;2022-12-10T06:21:16;-0.90;99.90
6407;DHT22;3236;51.022;6.818;2022-12-10T06:23:44;-0.70;99.90
6407;DHT22;3236;51.022;6.818;2022-12-10T06:26:13;-0.70;99.90
6407;DHT22;3236;51.022;6.818;2022-12-10T06:28:41;-0.60;99.90
6407;DHT22;3236;51.022;6.818;2022-12-10T06:31:09;-1.00;99.90
6407;DHT22;3236;51.022;6.818;2022-12-10T06:33:36;-0.60;99.90
6407;DHT22;3236;51.022;6.818;2022-12-10T06:36:07;-0.50;99.90
6407;DHT22;3236;51.022;6.818;2022-12-10T06:38:35;-0.60;99.90
6407;DHT22;3236;51.022;6.818;2022-12-10T06:41:04;0.10;99.90
6407;DHT22;3236;51.022;6.818;2022-12-10T06:43:31;-0.70;99.90
6407;DHT22;3236;51.022;6.818;2022-12-10T06:45:58;-0.90;99.90
6407;DHT22;3236;51.022;6.818;2022-12-10T06:48:27;-0.60;99.90
6407;DHT22;3236;51.022;6.818;2022-12-10T06:50:55;-0.60;99.90
6407;DHT22;3236;51.022;6.818;2022-12-10T06:53:23;0.00;99.90
6407;DHT22;3236;51.022;6.818;2022-12-10T06:55:51;-0.50;99.90
6407;DHT22;3236;51.022;6.818;2022-12-10T06:58:18;0.90;99.90
6407;DHT22;3236;51.022;6.818;2022-12-10T07:00:45;-0.50;99.90
6407;DHT22;3236;51.022;6.818;2022-12-10T07:03:15;-0.50;99.90
6407;DHT22;3236;51.022;6.818;2022-12-10T07:05:43;-0.60;99.90
6407;DHT22;3236;51.022;6.818;2022-12-10T07:08:10;-0.60;99.90
6407;DHT22;3236;51.022;6.818;2022-12-10T07:10:39;-0.70;99.90
6407;DHT22;3236;51.022;6.818;2022-12-10T07:13:06;-0.90;99.90
6407;DHT22;3236;51.022;6.818;2022-12-10T07:15:33;-0.80;99.90
6407;DHT22;3236;51.022;6.818;2022-12-10T07:18:00;-0.80;99.90
6407;DHT22;3236;51.022;6.818;2022-12-10T07:20:29;-0.80;99.90
6407;DHT22;3236;51.022;6.818;2022-12-10T07:22:57;-0.80;99.90
6407;DHT22;3236;51.022;6.818;2022-12-10T07:25:24;-0.80;99.90
6407;DHT22;3236;51.022;6.818;2022-12-10T07:27:52;-0.80;99.90
6407;DHT22;3236;51.022;6.818;2022-12-10T07:30:19;-0.80;99.90
6407;DHT22;3236;51.022;6.818;2022-12-10T07:32:46;-0.90;99.90
6407;DHT22;3236;51.022;6.818;2022-12-10T07:35:13;-0.90;99.90
6407;DHT22;3236;51.022;6.818;2022-12-10T07:37:41;-0.90;99.90
6407;DHT22;3236;51.022;6.818;2022-12-10T07:40:09;-0.90;99.90
6407;DHT22;3236;51.022;6.818;2022-12-10T07:42:37;-1.00;99.90
6407;DHT22;3236;51.022;6.818;2022-12-10T07:45:06;-0.60;99.90
6407;DHT22;3236;51.022;6.818;2022-12-10T07:47:35;-0.80;99.90
6407;DHT22;3236;51.022;6.818;2022-12-10T07:50:03;-0.70;99.90
6407;DHT22;3236;51.022;6.818;2022-12-10T07:52:30;-0.80;99.90
6407;DHT22;3236;51.022;6.818;2022-12-10T07:54:57;-0.70;99.90
6407;DHT22;3236;51.022;6.818;2022-12-10T07:57:24;-0.50;99.90
6407;DHT22;3236;51.022;6.818;2022-12-10T08:02:20;-0.70;99.90
6407;DHT22;3236;51.022;6.818;2022-12-10T08:04:49;-0.70;99.90
6407;DHT22;3236;51.022;6.818;2022-12-10T08:07:16;-1.00;99.90
6407;DHT22;3236;51.022;6.818;2022-12-10T08:09:46;-1.00;99.90
6407;DHT22;3236;51.022;6.818;2022-12-10T08:12:13;-0.80;99.90
6407;DHT22;3236;51.022;6.818;2022-12-10T08:14:41;-0.50;99.90
6407;DHT22;3236;51.022;6.818;2022-12-10T08:17:08;-0.70;99.90
6407;DHT22;3236;51.022;6.818;2022-12-10T08:19:39;-0.70;99.90
6407;DHT22;3236;51.022;6.818;2022-12-10T08:22:06;-0.40;99.90
6407;DHT22;3236;51.022;6.818;2022-12-10T08:24:34;-0.40;99.90
6407;DHT22;3236;51.022;6.818;2022-12-10T08:27:01;-0.30;99.90
6407;DHT22;3236;51.022;6.818;2022-12-10T08:29:28;-0.80;99.90
6407;DHT22;3236;51.022;6.818;2022-12-10T08:31:56;-0.30;99.90
6407;DHT22;3236;51.022;6.818;2022-12-10T08:34:23;-0.40;99.90
6407;DHT22;3236;51.022;6.818;2022-12-10T08:36:55;-0.50;99.90
6407;DHT22;3236;51.022;6.818;2022-12-10T08:39:27;-0.60;99.90
6407;DHT22;3236;51.022;6.818;2022-12-10T08:41:55;-0.40;99.90
6407;DHT22;3236;51.022;6.818;2022-12-10T08:44:22;-0.50;99.90
6407;DHT22;3236;51.022;6.818;2022-12-10T08:46:49;-0.70;99.90
6407;DHT22;3236;51.022;6.818;2022-12-10T08:49:17;-0.70;99.90
6407;DHT22;3236;51.022;6.818;2022-12-10T08:51:44;-0.50;99.90
6407;DHT22;3236;51.022;6.818;2022-12-10T08:54:12;-0.70;99.90
6407;DHT22;3236;51.022;6.818;2022-12-10T08:56:39;-0.80;99.90
6407;DHT22;3236;51.022;6.818;2022-12-10T08:59:06;-0.90;99.90
6407;DHT22;3236;51.022;6.818;2022-12-10T09:01:37;-0.90;99.90
6407;DHT22;3236;51.022;6.818;2022-12-10T09:04:04;-0.90;99.90
6407;DHT22;3236;51.022;6.818;2022-12-10T09:06:35;0.10;99.90
6407;DHT22;3236;51.022;6.818;2022-12-10T09:09:02;-0.60;99.90
6407;DHT22;3236;51.022;6.818;2022-12-10T09:11:33;-0.80;99.90
6407;DHT22;3236;51.022;6.818;2022-12-10T09:14:00;-0.70;99.90
6407;DHT22;3236;51.022;6.818;2022-12-10T09:16:29;-1.20;99.90
6407;DHT22;3236;51.022;6.818;2022-12-10T09:18:56;-0.90;99.90
6407;DHT22;3236;51.022;6.818;2022-12-10T09:21:28;-0.90;99.90
6407;DHT22;3236;51.022;6.818;2022-12-10T09:23:56;-0.90;99.90
6407;DHT22;3236;51.022;6.818;2022-12-10T09:26:24;-0.80;99.90
6407;DHT22;3236;51.022;6.818;2022-12-10T09:28:52;-1.10;99.90
6407;DHT22;3236;51.022;6.818;2022-12-10T09:31:20;-0.90;99.90
6407;DHT22;3236;51.022;6.818;2022-12-10T09:33:49;-0.90;99.90
6407;DHT22;3236;51.022;6.818;2022-12-10T09:36:18;-0.70;99.90
6407;DHT22;3236;51.022;6.818;2022-12-10T09:38:46;-0.60;99.90
6407;DHT22;3236;51.022;6.818;2022-12-10T09:41:36;-0.60;99.90
6407;DHT22;3236;51.022;6.818;2022-12-10T09:44:11;-0.50;99.90
6407;DHT22;3236;51.022;6.818;2022-12-10T09:46:48;-0.20;99.90
6407;DHT22;3236;51.022;6.818;2022-12-10T09:49:24;-0.30;99.90
6407;DHT22;3236;51.022;6.818;2022-12-10T09:51:58;-0.60;99.90
6407;DHT22;3236;51.022;6.818;2022-12-10T09:54:29;-0.60;99.90
6407;DHT22;3236;51.022;6.818;2022-12-10T09:56:57;-0.50;99.90
6407;DHT22;3236;51.022;6.818;2022-12-10T09:59:31;-0.20;99.90
6407;DHT22;3236;51.022;6.818;2022-12-10T10:02:04;0.20;99.90
6407;DHT22;3236;51.022;6.818;2022-12-10T10:04:41;0.10;99.90
6407;DHT22;3236;51.022;6.818;2022-12-10T10:07:14;0.50;99.90
6407;DHT22;3236;51.022;6.818;2022-12-10T10:09:44;0.00;99.90
6407;DHT22;3236;51.022;6.818;2022-12-10T10:12:13;1.30;99.90
6407;DHT22;3236;51.022;6.818;2022-12-10T10:14:43;-0.10;99.90
6407;DHT22;3236;51.022;6.818;2022-12-10T10:17:21;-0.10;99.90
6407;DHT22;3236;51.022;6.818;2022-12-10T10:19:49;0.00;99.90
6407;DHT22;3236;51.022;6.818;2022-12-10T10:22:16;0.40;99.90
6407;DHT22;3236;51.022;6.818;2022-12-10T10:24:45;0.20;99.90
6407;DHT22;3236;51.022;6.818;2022-12-10T10:27:14;0.30;99.90
6407;DHT22;3236;51.022;6.818;2022-12-10T10:29:45;0.40;99.90
6407;DHT22;3236;51.022;6.818;2022-12-10T10:32:16;0.30;99.90
6407;DHT22;3236;51.022;6.818;2022-12-10T10:34:45;0.60;99.90
6407;DHT22;3236;51.022;6.818;2022-12-10T10:37:19;0.40;99.90
6407;DHT22;3236;51.022;6.818;2022-12-10T10:39:49;0.00;99.90
6407;DHT22;3236;51.022;6.818;2022-12-10T10:42:34;-0.20;99.90
6407;DHT22;3236;51.022;6.818;2022-12-10T10:45:05;-0.10;99.90
6407;DHT22;3236;51.022;6.818;2022-12-10T10:47:34;0.10;99.90
6407;DHT22;3236;51.022;6.818;2022-12-10T10:50:04;-0.20;99.90
6407;DHT22;3236;51.022;6.818;2022-12-10T10:52:37;0.10;99.90
6407;DHT22;3236;51.022;6.818;2022-12-10T10:55:08;0.50;99.90
6407;DHT22;3236;51.022;6.818;2022-12-10T10:57:37;0.30;99.90
6407;DHT22;3236;51.022;6.818;2022-12-10T11:00:18;0.50;99.90
6407;DHT22;3236;51.022;6.818;2022-12-10T11:02:46;0.20;99.90
6407;DHT22;3236;51.022;6.818;2022-12-10T11:05:18;0.50;99.90
6407;DHT22;3236;51.022;6.818;2022-12-10T11:07:57;0.50;99.90
6407;DHT22;3236;51.022;6.818;2022-12-10T11:10:25;0.30;99.90
6407;DHT22;3236;51.022;6.818;2022-12-10T11:12:56;0.40;99.90
6407;DHT22;3236;51.022;6.818;2022-12-10T11:15:33;0.50;99.90
6407;DHT22;3236;51.022;6.818;2022-12-10T11:18:01;0.90;99.90
6407;DHT22;3236;51.022;6.818;2022-12-10T11:20:31;0.80;99.90
6407;DHT22;3236;51.022;6.818;2022-12-10T11:25:40;0.80;99.90
6407;DHT22;3236;51.022;6.818;2022-12-10T11:28:24;0.80;99.90
6407;DHT22;3236;51.022;6.818;2022-12-10T11:31:08;1.00;99.90
6407;DHT22;3236;51.022;6.818;2022-12-10T11:33:44;0.50;99.90
6407;DHT22;3236;51.022;6.818;2022-12-10T11:36:27;0.60;99.90
6407;DHT22;3236;51.022;6.818;2022-12-10T11:39:05;0.60;99.90
6407;DHT22;3236;51.022;6.818;2022-12-10T11:41:40;1.20;99.90
6407;DHT22;3236;51.022;6.818;2022-12-10T11:44:25;0.50;99.90
6407;DHT22;3236;51.022;6.818;2022-12-10T11:50:01;0.60;99.90
6407;DHT22;3236;51.022;6.818;2022-12-10T11:52:40;0.60;99.90
6407;DHT22;3236;51.022;6.818;2022-12-10T11:55:21;0.40;99.90
6407;DHT22;3236;51.022;6.818;2022-12-10T11:58:04;0.40;99.90
6407;DHT22;3236;51.022;6.818;2022-12-10T12:00:40;0.50;99.90
6407;DHT22;3236;51.022;6.818;2022-12-10T12:03:28;0.80;99.90
6407;DHT22;3236;51.022;6.818;2022-12-10T12:06:08;1.10;99.90
6407;DHT22;3236;51.022;6.818;2022-12-10T12:08:46;0.70;99.90
6407;DHT22;3236;51.022;6.818;2022-12-10T12:11:29;0.60;99.90
6407;DHT22;3236;51.022;6.818;2022-12-10T12:14:04;0.70;99.90
6407;DHT22;3236;51.022;6.818;2022-12-10T12:16:37;0.70;99.90
6407;DHT22;3236;51.022;6.818;2022-12-10T12:19:14;0.60;99.90
6407;DHT22;3236;51.022;6.818;2022-12-10T12:21:44;0.50;99.90
6407;DHT22;3236;51.022;6.818;2022-12-10T12:24:17;0.50;99.90
6407;DHT22;3236;51.022;6.818;2022-12-10T12:26:49;0.30;99.90
6407;DHT22;3236;51.022;6.818;2022-12-10T12:29:20;0.70;99.90
6407;DHT22;3236;51.022;6.818;2022-12-10T12:31:54;0.90;99.90
6407;DHT22;3236;51.022;6.818;2022-12-10T12:34:29;0.80;99.90
6407;DHT22;3236;51.022;6.818;2022-12-10T12:37:00;0.90;99.90
6407;DHT22;3236;51.022;6.818;2022-12-10T12:39:33;1.40;99.90
6407;DHT22;3236;51.022;6.818;2022-12-10T12:42:12;1.10;99.90
6407;DHT22;3236;51.022;6.818;2022-12-10T12:44:59;1.00;99.90
6407;DHT22;3236;51.022;6.818;2022-12-10T12:47:37;1.00;99.90
6407;DHT22;3236;51.022;6.818;2022-12-10T12:50:15;2.60;99.90
6407;DHT22;3236;51.022;6.818;2022-12-10T12:52:50;1.50;99.90
6407;DHT22;3236;51.022;6.818;2022-12-10T12:55:22;1.40;99.90
6407;DHT22;3236;51.022;6.818;2022-12-10T12:57:56;1.30;99.90
6407;DHT22;3236;51.022;6.818;2022-12-10T13:00:29;1.30;99.90
6407;DHT22;3236;51.022;6.818;2022-12-10T13:03:17;1.20;99.90
6407;DHT22;3236;51.022;6.818;2022-12-10T13:05:47;1.00;99.90
6407;DHT22;3236;51.022;6.818;2022-12-10T13:08:24;1.30;99.90
6407;DHT22;3236;51.022;6.818;2022-12-10T13:10:53;1.80;99.90
6407;DHT22;3236;51.022;6.818;2022-12-10T13:13:27;1.20;99.90
6407;DHT22;3236;51.022;6.818;2022-12-10T13:15:56;1.30;99.90
6407;DHT22;3236;51.022;6.818;2022-12-10T13:18:36;1.20;99.90
6407;DHT22;3236;51.022;6.818;2022-12-10T13:21:27;1.00;99.90
6407;DHT22;3236;51.022;6.818;2022-12-10T13:24:09;1.00;99.90
6407;DHT22;3236;51.022;6.818;2022-12-10T13:26:36;1.00;99.90
6407;DHT22;3236;51.022;6.818;2022-12-10T13:29:25;0.80;99.90
6407;DHT22;3236;51.022;6.818;2022-12-10T13:32:01;0.90;99.90
6407;DHT22;3236;51.022;6.818;2022-12-10T13:34:34;1.10;99.90
6407;DHT22;3236;51.022;6.818;2022-12-10T13:37:31;1.20;99.90
6407;DHT22;3236;51.022;6.818;2022-12-10T13:40:13;1.10;99.90
6407;DHT22;3236;51.022;6.818;2022-12-10T13:42:44;1.20;99.90
6407;DHT22;3236;51.022;6.818;2022-12-10T13:45:32;1.40;99.90
6407;DHT22;3236;51.022;6.818;2022-12-10T13:48:29;1.50;99.90
6407;DHT22;3236;51.022;6.818;2022-12-10T13:51:14;1.10;99.90
6407;DHT22;3236;51.022;6.818;2022-12-10T13:53:56;1.30;99.90
6407;DHT22;3236;51.022;6.818;2022-12-10T13:59:06;1.10;99.90
6407;DHT22;3236;51.022;6.818;2022-12-10T14:01:42;1.30;99.90
6407;DHT22;3236;51.022;6.818;2022-12-10T14:04:37;1.20;99.90
6407;DHT22;3236;51.022;6.818;2022-12-10T14:07:08;1.20;99.90
6407;DHT22;3236;51.022;6.818;2022-12-10T14:09:45;1.30;99.90
6407;DHT22;3236;51.022;6.818;2022-12-10T14:14:46;1.10;99.90
6407;DHT22;3236;51.022;6.818;2022-12-10T14:17:18;1.40;99.90
6407;DHT22;3236;51.022;6.818;2022-12-10T14:19:48;1.30;99.90
6407;DHT22;3236;51.022;6.818;2022-12-10T14:27:27;1.00;99.90
6407;DHT22;3236;51.022;6.818;2022-12-10T14:30:00;0.90;99.90
6407;DHT22;3236;51.022;6.818;2022-12-10T14:34:59;0.60;99.90
6407;DHT22;3236;51.022;6.818;2022-12-10T14:37:36;0.80;99.90
6407;DHT22;3236;51.022;6.818;2022-12-10T14:40:12;0.70;99.90
6407;DHT22;3236;51.022;6.818;2022-12-10T14:45:17;1.10;99.90
6407;DHT22;3236;51.022;6.818;2022-12-10T14:47:47;0.90;99.90
6407;DHT22;3236;51.022;6.818;2022-12-10T14:52:49;1.00;99.90
6407;DHT22;3236;51.022;6.818;2022-12-10T14:55:21;1.30;99.90
6407;DHT22;3236;51.022;6.818;2022-12-10T14:57:53;0.70;99.90
6407;DHT22;3236;51.022;6.818;2022-12-10T15:00:22;0.70;99.90
6407;DHT22;3236;51.022;6.818;2022-12-10T15:02:54;0.90;99.90
6407;DHT22;3236;51.022;6.818;2022-12-10T15:05:25;0.80;99.90
6407;DHT22;3236;51.022;6.818;2022-12-10T15:07:55;0.90;99.90
6407;DHT22;3236;51.022;6.818;2022-12-10T15:10:31;0.90;99.90
6407;DHT22;3236;51.022;6.818;2022-12-10T15:13:04;0.90;99.90
6407;DHT22;3236;51.022;6.818;2022-12-10T15:18:08;0.90;99.90
6407;DHT22;3236;51.022;6.818;2022-12-10T15:20:43;0.90;99.90
6407;DHT22;3236;51.022;6.818;2022-12-10T15:23:19;0.90;99.90
6407;DHT22;3236;51.022;6.818;2022-12-10T15:25:52;0.90;99.90
6407;DHT22;3236;51.022;6.818;2022-12-10T15:33:31;0.60;99.90
6407;DHT22;3236;51.022;6.818;2022-12-10T15:41:22;0.90;99.90
6407;DHT22;3236;51.022;6.818;2022-12-10T15:43:59;1.10;99.90
6407;DHT22;3236;51.022;6.818;2022-12-10T15:46:30;0.90;99.90
6407;DHT22;3236;51.022;6.818;2022-12-10T15:48:57;1.10;99.90
6407;DHT22;3236;51.022;6.818;2022-12-10T15:51:28;0.70;99.90
6407;DHT22;3236;51.022;6.818;2022-12-10T15:53:55;1.00;99.90
6407;DHT22;3236;51.022;6.818;2022-12-10T15:56:23;1.00;99.90
6407;DHT22;3236;51.022;6.818;2022-12-10T15:58:50;1.20;99.90
6407;DHT22;3236;51.022;6.818;2022-12-10T16:01:18;1.00;99.90
6407;DHT22;3236;51.022;6.818;2022-12-10T16:03:45;1.00;99.90
6407;DHT22;3236;51.022;6.818;2022-12-10T16:06:13;1.30;99.90
6407;DHT22;3236;51.022;6.818;2022-12-10T16:08:42;0.70;99.90
6407;DHT22;3236;51.022;6.818;2022-12-10T16:11:15;1.40;99.90
6407;DHT22;3236;51.022;6.818;2022-12-10T16:13:48;1.30;99.90
6407;DHT22;3236;51.022;6.818;2022-12-10T16:16:16;1.00;99.90
6407;DHT22;3236;51.022;6.818;2022-12-10T16:18:43;1.00;99.90
6407;DHT22;3236;51.022;6.818;2022-12-10T16:21:10;1.20;99.90
6407;DHT22;3236;51.022;6.818;2022-12-10T16:23:37;1.10;99.90
6407;DHT22;3236;51.022;6.818;2022-12-10T16:26:12;0.70;99.90
6407;DHT22;3236;51.022;6.818;2022-12-10T16:28:41;0.90;99.90
6407;DHT22;3236;51.022;6.818;2022-12-10T16:31:15;0.80;99.90
6407;DHT22;3236;51.022;6.818;2022-12-10T16:36:11;0.80;99.90
6407;DHT22;3236;51.022;6.818;2022-12-10T16:38:39;0.80;99.90
6407;DHT22;3236;51.022;6.818;2022-12-10T16:41:15;0.60;99.90
6407;DHT22;3236;51.022;6.818;2022-12-10T16:43:44;0.60;99.90
6407;DHT22;3236;51.022;6.818;2022-12-10T16:46:13;0.60;99.90
6407;DHT22;3236;51.022;6.818;2022-12-10T16:48:40;0.80;99.90
6407;DHT22;3236;51.022;6.818;2022-12-10T16:51:15;0.60;99.90
6407;DHT22;3236;51.022;6.818;2022-12-10T16:53:42;0.50;99.90
6407;DHT22;3236;51.022;6.818;2022-12-10T16:56:14;0.80;99.90
6407;DHT22;3236;51.022;6.818;2022-12-10T16:58:41;0.60;99.90
6407;DHT22;3236;51.022;6.818;2022-12-10T17:01:19;0.60;99.90
6407;DHT22;3236;51.022;6.818;2022-12-10T17:03:47;0.60;99.90
6407;DHT22;3236;51.022;6.818;2022-12-10T17:06:15;0.70;99.90
6407;DHT22;3236;51.022;6.818;2022-12-10T17:08:42;0.60;99.90
6407;DHT22;3236;51.022;6.818;2022-12-10T17:11:17;0.70;99.90
6407;DHT22;3236;51.022;6.818;2022-12-10T17:14:02;0.60;99.90
6407;DHT22;3236;51.022;6.818;2022-12-10T17:16:33;0.40;99.90
6407;DHT22;3236;51.022;6.818;2022-12-10T17:19:00;0.50;99.90
6407;DHT22;3236;51.022;6.818;2022-12-10T17:21:28;0.40;99.90